• Join FlightAware (Why Join?)
  • Login
  • US Flag GB Flag 
06:38 EDT


 

Airport Tracker/Info


-or-


 

Live Flight TrackerFlight Track Log ✈ USC105 ✈ 17-Apr-2013 ✈ KYIP - KLCK

Flight Track Log - Related Links

Times and Time Zones

All times are in EDT time to prevent confusion due to time zone crossing. See the USC105 flight status page for this flight to view local times or setup timezone preferences in your user account.

Time Position Orientation Groundspeed Altitude Reporting Facility
EDT Latitude Longitude Course Direction KTS MPH feet Rate Location/Type
07:04 42.2625 -83.5825 170° South 138 159 2,900  Level Cleveland Center
07:05 42.2492 -83.6239 246° West 126 145 4,200 1,020 Climbing Cleveland Center
07:06 42.2192 -83.6506 213° Southwest 144 166 5,000 360 Climbing Cleveland Center
07:07 42.1786 -83.6850 212° Southwest 167 192 5,000  Level Cleveland Center
07:08 41.9829 -83.4415 160° South  Level FlightAware Approximate
07:08 42.1358 -83.7194 211° Southwest 180 207 5,000  Level Cleveland Center
07:09 41.9328 -83.4292 170° South  Level Estimated
07:09 42.0914 -83.7453 203° Southwest 187 215 5,000  Level Cleveland Center
07:10 42.0344 -83.7703 198° South 181 208 5,000  Level Cleveland Center
07:11 41.9889 -83.7653 175° South 187 215 5,000  Level Cleveland Center
07:12 41.9372 -83.7403 160° South 188 216 5,000  Level Cleveland Center
07:13 41.8897 -83.7242 166° South 189 217 5,000 360 Level Cleveland Center
07:14 41.8444 -83.7050 162° South 164 189 5,800 720 Climbing Cleveland Center
07:15 41.7908 -83.6831 163° South 167 192 6,600 420 Climbing Cleveland Center
07:16 42.1667 -84.4833 303° West 231 266 7,100 120 Climbing Chicago TRACON
07:19 42.1667 -84.4833 217° Southwest 231 266 7,100  Level Chicago TRACON
07:20 42.1667 -84.4833 217° Southwest 231 266 7,100  Level Chicago TRACON
07:22 42.1667 -84.4833 217° Southwest 231 266 7,100  Level Chicago TRACON
07:24 42.1667 -84.4833 217° Southwest 231 266 7,100  Level Chicago TRACON
07:26 42.1667 -84.4833 217° Southwest 231 266 7,100  Level Chicago TRACON
07:28 42.1667 -84.4833 217° Southwest 231 266 7,100  Level Chicago TRACON
07:30 42.1667 -84.4833 217° Southwest 231 266 7,100  Level Chicago TRACON
07:32 42.1667 -84.4833 217° Southwest 231 266 7,100 -60 Level Chicago TRACON
07:33 40.8622 -83.3189 146° Southeast 202 232 7,000 -120 Descending Indianapolis Center
07:34 40.8083 -83.2992 165° South 200 230 7,000  Level Indianapolis Center
07:35 40.7578 -83.2800 164° South 201 231 7,000  Level Indianapolis Center
07:36 40.7044 -83.2594 164° South 198 228 7,000  Level Indianapolis Center
07:37 40.6519 -83.2408 165° South 195 224 7,000  Level Indianapolis Center
07:38 40.5969 -83.2189 163° South 200 230 7,000  Level Indianapolis Center
07:39 40.5442 -83.1994 164° South 198 228 7,000  Level Indianapolis Center
07:40 40.4911 -83.1792 164° South 196 226 7,000  Level Indianapolis Center
07:41 40.4414 -83.1661 169° South 195 224 7,000  Level Indianapolis Center
07:41 40.4286 -83.1589 157° South 196 226 7,000  Level Indianapolis Center
07:42 40.3881 -83.1486 169° South 196 226 7,000 -120 Level Indianapolis Center
07:42 40.3747 -83.1433 163° South 196 226 6,900  Descending Indianapolis Center
07:43 40.3350 -83.1314 167° South 197 227 7,000  Climbing Indianapolis Center
07:43 40.3214 -83.1256 162° South 195 224 6,900  Descending Indianapolis Center
07:44 40.2817 -83.1142 168° South 198 228 7,000  Climbing Indianapolis Center
07:44 40.2678 -83.1081 161° South 196 226 6,900  Descending Indianapolis Center
07:45 40.2283 -83.0972 168° South 197 227 7,000  Climbing Indianapolis Center
07:45 40.2139 -83.0906 161° South 196 226 6,900  Descending Indianapolis Center
07:46 40.1753 -83.0772 165° South 197 227 7,000  Climbing Indianapolis Center
07:46 40.1597 -83.0725 167° South 198 228 6,900 -540 Descending Indianapolis Center
07:47 40.1169 -83.0731 181° South 200 230 6,500 -780 Descending Indianapolis Center
07:47 40.1033 -83.0739 183° South 202 232 6,100 -1,020 Descending Indianapolis Center
07:48 40.0581 -83.0772 183° South 209 241 5,500 -1,020 Descending Indianapolis Center
07:48 40.0450 -83.0786 185° South 207 238 5,100 -540 Descending Indianapolis Center
07:49 40.0014 -83.0814 183° South 208 239 5,000 -240 Descending Indianapolis Center
07:49 39.9875 -83.0814 180° South 206 237 4,900  Descending Indianapolis Center
07:50 39.9528 -83.0867 187° South 171 197 5,000  Climbing Indianapolis Center
07:50 39.9397 -83.0858 177° South 182 209 4,900  Descending Indianapolis Center
07:51 39.9067 -83.0894 185° South 168 193 5,000  Climbing Indianapolis Center
07:51 39.8917 -83.0917 186° South 173 199 4,900 -420 Descending Indianapolis Center
07:52 39.8600 -83.0950 185° South 169 194 4,600 -900 Descending Indianapolis Center
07:52 39.8428 -83.0956 181° South 171 197 4,000 -1,380 Descending Indianapolis Center
07:53 39.8028 -83.1072 193° South 199 229 3,200 -1,140 Descending Indianapolis Center
07:53 39.7897 -83.1136 201° Southwest 189 217 2,900 -240 Descending Indianapolis Center
07:54 39.7606 -83.1431 218° Southwest 184 212 3,000  Climbing Indianapolis Center
07:54 39.7517 -83.1519 218° Southwest 174 200 2,900  Descending Indianapolis Center
07:55 39.7239 -83.1578 189° South 165 190 3,000  Climbing Indianapolis Center
07:55 39.7153 -83.1439 129° Southeast 163 188 2,900  Descending Indianapolis Center
07:56 39.6981 -83.1086 122° Southeast 159 183 3,000  Climbing Indianapolis Center
07:56 39.7008 -83.0919 78° East 160 184 2,900  Descending Indianapolis Center
07:57 39.7161 -83.0592 59° Northeast 153 176 3,000 60 Climbing Indianapolis Center
07:57 39.7239 -83.0461 52° Northeast 154 177 3,000 -420 Level Indianapolis Center
07:58 39.7414 -83.0242 44° Northeast 131 151 2,600 -720 Descending Indianapolis Center